createdAt,value
2022-08-17T16:00:01.742Z,42.64
2022-08-17T16:01:01.714Z,40.92
2022-08-17T16:02:01.855Z,40.82
2022-08-17T16:03:01.692Z,39.78
2022-08-17T16:04:01.685Z,39.36
2022-08-17T16:05:01.671Z,38.98
2022-08-17T16:06:01.658Z,38.79
2022-08-17T16:07:01.652Z,39.67
2022-08-17T16:08:01.637Z,39.28
2022-08-17T16:09:01.633Z,38.38
2022-08-17T16:10:01.663Z,37.7
2022-08-17T16:11:01.611Z,35.13
2022-08-17T16:12:01.608Z,34.04
2022-08-17T16:13:01.585Z,33.94
2022-08-17T16:14:01.577Z,33.84
2022-08-17T16:15:01.592Z,33.25
2022-08-17T16:16:01.565Z,33.86
2022-08-17T16:17:01.579Z,34.07
2022-08-17T16:18:01.547Z,34.59
2022-08-17T16:19:01.528Z,37.35
2022-08-17T16:20:01.515Z,38.67
2022-08-17T16:21:01.508Z,39.28
2022-08-17T16:22:01.491Z,39.59
2022-08-17T16:23:01.482Z,39.9
2022-08-17T16:24:01.486Z,40.6
2022-08-17T16:25:01.466Z,39.82
2022-08-17T16:26:01.458Z,39.43
2022-08-17T16:27:01.488Z,39.06
2022-08-17T16:28:01.456Z,39.06
2022-08-17T16:29:01.441Z,38.87
2022-08-17T16:30:01.411Z,38.79
2022-08-17T16:31:01.401Z,38.81
2022-08-17T16:32:01.384Z,38.61
2022-08-17T16:33:01.394Z,38.63
2022-08-17T16:34:01.371Z,39.25
2022-08-17T16:35:01.392Z,39.54
2022-08-17T16:36:01.358Z,40.45
2022-08-17T16:37:01.361Z,40.94
2022-08-17T16:38:01.324Z,42.02
2022-08-17T16:39:01.314Z,42.62
2022-08-17T16:40:01.319Z,0
2022-08-17T16:41:01.301Z,42.45
2022-08-17T16:42:01.306Z,42.52
2022-08-17T16:43:01.275Z,42.43
2022-08-17T16:44:01.281Z,42.21
2022-08-17T16:45:01.267Z,42.33
2022-08-17T16:46:01.253Z,42.21
2022-08-17T16:47:01.235Z,42.52
2022-08-17T16:48:01.221Z,42.91
2022-08-17T16:49:01.217Z,43.04
2022-08-17T16:50:01.216Z,43.15
2022-08-17T16:51:01.193Z,43.04
2022-08-17T16:52:01.230Z,42.84
2022-08-17T16:53:01.169Z,42.82
2022-08-17T16:54:01.163Z,0
2022-08-17T16:55:01.167Z,43.62
2022-08-17T16:56:01.136Z,43.23
2022-08-17T16:57:01.130Z,43.21
2022-08-17T16:58:01.118Z,43.09
2022-08-17T16:59:01.127Z,0
2022-08-17T17:00:01.098Z,43.51
2022-08-17T17:01:01.084Z,43.51
2022-08-17T17:02:01.098Z,43.48
2022-08-17T17:03:01.059Z,43.48
2022-08-17T17:04:01.049Z,43.37
2022-08-17T17:05:01.040Z,43.17
2022-08-17T17:06:01.040Z,43.17
2022-08-17T17:07:01.016Z,43.29
2022-08-17T17:08:01.031Z,43.38
2022-08-17T17:09:01.011Z,43.48
2022-08-17T17:10:00.989Z,43.8
2022-08-17T17:11:00.975Z,43.8
2022-08-17T17:12:00.985Z,43.38
2022-08-17T17:13:00.959Z,43.09
2022-08-17T17:14:00.951Z,43.29
2022-08-17T17:15:00.935Z,43.38
2022-08-17T17:16:00.935Z,43.17
2022-08-17T17:17:00.912Z,43.17
2022-08-17T17:18:00.905Z,43.07
2022-08-17T17:19:00.906Z,42.8
2022-08-17T17:20:00.881Z,42.6
2022-08-17T17:21:00.868Z,42.5
2022-08-17T17:22:00.855Z,43.33
2022-08-17T17:23:00.849Z,43.72
2022-08-17T17:24:00.834Z,43.13
2022-08-17T17:25:00.824Z,42.91
2022-08-17T17:26:00.812Z,42.62
2022-08-17T17:27:00.810Z,42.82
2022-08-17T17:28:00.796Z,43.12
2022-08-17T17:29:00.782Z,43.12
2022-08-17T17:30:00.772Z,43.02
2022-08-17T17:31:00.764Z,43.02
2022-08-17T17:32:00.833Z,43.8
2022-08-17T17:33:00.744Z,43.7
2022-08-17T17:34:00.734Z,43.6
2022-08-17T17:35:00.724Z,43.58
2022-08-17T17:36:00.711Z,43.38
2022-08-17T17:37:00.729Z,43.21
2022-08-17T17:38:00.691Z,43.62
2022-08-17T17:39:00.695Z,0
2022-08-17T17:40:00.667Z,0
2022-08-17T17:41:00.658Z,0
2022-08-17T17:42:00.645Z,0
2022-08-17T17:43:00.666Z,44.77
2022-08-17T17:44:00.648Z,0
2022-08-17T17:45:00.634Z,0
2022-08-17T17:46:00.609Z,0
2022-08-17T17:47:00.607Z,0
2022-08-17T17:48:00.580Z,0
2022-08-17T17:49:00.571Z,0
2022-08-17T17:50:00.574Z,0
2022-08-17T17:51:00.578Z,0
2022-08-17T17:52:00.540Z,0
2022-08-17T17:53:00.539Z,0
2022-08-17T17:54:00.539Z,0
2022-08-17T17:55:00.514Z,46.78
2022-08-17T17:56:00.503Z,46.46
2022-08-17T17:57:00.492Z,46.26
2022-08-17T17:58:00.484Z,46.34
2022-08-17T17:59:00.478Z,46.24
2022-08-17T18:00:00.455Z,46.17
2022-08-17T18:01:00.449Z,46.17
2022-08-17T18:02:00.453Z,46.36
2022-08-17T18:03:00.445Z,46.14
2022-08-17T18:04:00.435Z,46.14
2022-08-17T18:05:00.412Z,46.36
2022-08-17T18:06:00.396Z,46.46
2022-08-17T18:07:00.389Z,46.56
2022-08-17T18:08:00.404Z,46.63
2022-08-17T18:09:00.369Z,46.12
2022-08-17T18:10:00.361Z,45.83
2022-08-17T18:11:00.373Z,46.12
2022-08-17T18:12:00.392Z,46.22
2022-08-17T18:13:00.328Z,46.12
2022-08-17T18:14:00.314Z,46.12
2022-08-17T18:15:00.303Z,46.31
2022-08-17T18:16:00.300Z,46.61
2022-08-17T18:17:00.285Z,0
2022-08-17T18:18:00.286Z,46.93
2022-08-17T18:19:00.269Z,0
2022-08-17T18:20:00.276Z,0
2022-08-17T18:21:00.245Z,0
2022-08-17T18:22:00.240Z,0
2022-08-17T18:23:00.235Z,0
2022-08-17T18:24:00.212Z,48.96
2022-08-17T18:25:00.221Z,48.35
2022-08-17T18:26:00.202Z,0
2022-08-17T18:27:00.175Z,0
2022-08-17T18:28:00.186Z,0
2022-08-17T18:29:00.152Z,0
2022-08-17T18:30:00.176Z,49.65
2022-08-17T18:31:00.154Z,49.23
2022-08-17T18:32:00.135Z,48.21
2022-08-17T18:33:00.116Z,48.01
2022-08-17T18:34:00.119Z,47.69
2022-08-17T18:35:00.094Z,47.59
2022-08-17T18:36:00.093Z,47.59
2022-08-17T18:37:00.087Z,47.59
2022-08-17T18:38:00.060Z,47.81
2022-08-17T18:39:00.058Z,48.11
2022-08-17T18:40:00.040Z,48.4
2022-08-17T18:41:00.030Z,48.08
2022-08-17T18:42:00.046Z,48.5
2022-08-17T18:43:00.014Z,48.62
2022-08-17T18:43:59.997Z,48.91
2022-08-17T18:44:59.990Z,49.43
2022-08-17T18:45:59.983Z,49.53
2022-08-17T18:46:59.969Z,49.53
2022-08-17T18:47:59.975Z,49.51
2022-08-17T18:48:59.971Z,49.53
2022-08-17T18:49:59.950Z,49.43
2022-08-17T18:50:59.928Z,49.63
2022-08-17T18:51:59.916Z,49.73
2022-08-17T18:52:59.901Z,49.82
2022-08-17T18:53:59.887Z,0
2022-08-17T18:54:59.879Z,0
2022-08-17T18:55:59.868Z,0
2022-08-17T18:56:59.871Z,0
2022-08-17T18:57:59.848Z,0
2022-08-17T18:58:59.848Z,0
2022-08-17T18:59:59.831Z,0
2022-08-17T19:00:59.813Z,0
2022-08-17T19:01:59.802Z,0
2022-08-17T19:02:59.800Z,0
2022-08-17T19:03:59.782Z,0
2022-08-17T19:04:59.786Z,0
2022-08-17T19:05:59.767Z,0
2022-08-17T19:06:59.754Z,0
2022-08-17T19:07:59.738Z,0
2022-08-17T19:08:59.754Z,0
2022-08-17T19:09:59.717Z,0
2022-08-17T19:10:59.709Z,0
2022-08-17T19:11:59.725Z,0
2022-08-17T19:12:59.686Z,0
2022-08-17T19:13:59.678Z,0
2022-08-17T19:14:59.678Z,0
2022-08-17T19:15:59.660Z,0
2022-08-17T19:16:59.652Z,0
2022-08-17T19:17:59.638Z,51.25
2022-08-17T19:18:59.631Z,49.31
2022-08-17T19:19:59.615Z,47.86
2022-08-17T19:20:59.614Z,0
2022-08-17T19:21:59.620Z,0
2022-08-17T19:22:59.617Z,0
2022-08-17T19:23:59.603Z,0
2022-08-17T19:24:59.559Z,50.81
2022-08-17T19:25:59.552Z,0
2022-08-17T19:26:59.549Z,0
2022-08-17T19:27:59.564Z,0
2022-08-17T19:28:59.536Z,0
2022-08-17T19:29:59.503Z,0
2022-08-17T19:30:59.497Z,0
2022-08-17T19:31:59.492Z,54.88
2022-08-17T19:32:59.471Z,0
2022-08-17T19:33:59.468Z,0
2022-08-17T19:34:59.457Z,0
2022-08-17T19:35:59.455Z,0
2022-08-17T19:36:59.431Z,0
2022-08-17T19:37:59.426Z,56.4
2022-08-17T19:38:59.463Z,0
2022-08-17T19:39:59.396Z,0
2022-08-17T19:40:59.400Z,0
2022-08-17T19:41:59.378Z,0
2022-08-17T19:42:59.370Z,0
2022-08-17T19:43:59.386Z,0
2022-08-17T19:44:59.352Z,0
2022-08-17T19:45:59.357Z,0
2022-08-17T19:46:59.331Z,0
2022-08-17T19:47:59.311Z,0
2022-08-17T19:48:59.305Z,0
2022-08-17T19:49:59.299Z,0
2022-08-17T19:50:59.292Z,0
2022-08-17T19:51:59.272Z,0
2022-08-17T19:52:59.282Z,0
2022-08-17T19:53:59.260Z,0
2022-08-17T19:54:59.237Z,0
2022-08-17T19:55:59.236Z,57.48
2022-08-17T19:56:59.216Z,0
2022-08-17T19:57:59.207Z,0
2022-08-17T19:58:59.197Z,0
2022-08-17T19:59:59.193Z,55.52
2022-08-17T20:00:59.181Z,54.78
2022-08-17T20:01:59.170Z,54.06
2022-08-17T20:02:59.166Z,53.74
2022-08-17T20:03:59.150Z,53.44
2022-08-17T20:04:59.131Z,53.84
2022-08-17T20:05:59.131Z,53.94
2022-08-17T20:06:59.112Z,53.96
2022-08-17T20:07:59.121Z,53.94
2022-08-17T20:08:59.130Z,53.61
2022-08-17T20:09:59.083Z,52.9
2022-08-17T20:10:59.073Z,52.48
2022-08-17T20:11:59.062Z,52.19
2022-08-17T20:12:59.050Z,0
2022-08-17T20:13:59.055Z,54.13
2022-08-17T20:14:59.031Z,54.26
2022-08-17T20:15:59.037Z,54.03
2022-08-17T20:16:59.006Z,54.03
2022-08-17T20:17:58.994Z,53.71
2022-08-17T20:18:58.994Z,53.42
2022-08-17T20:19:58.974Z,53.19
2022-08-17T20:20:59.002Z,53.3
2022-08-17T20:21:58.955Z,53.3
2022-08-17T20:22:58.939Z,53.71
2022-08-17T20:23:58.939Z,0
2022-08-17T20:24:58.934Z,55.27
2022-08-17T20:25:58.932Z,55.27
2022-08-17T20:26:58.907Z,55.37
2022-08-17T20:27:58.910Z,55.47
2022-08-17T20:28:58.903Z,55.66
2022-08-17T20:29:58.869Z,55.66
2022-08-17T20:30:58.896Z,0
2022-08-17T20:31:58.860Z,0
2022-08-17T20:32:58.880Z,0
2022-08-17T20:33:58.859Z,56.81
2022-08-17T20:34:58.893Z,0
2022-08-17T20:35:58.824Z,0
2022-08-17T20:36:58.854Z,0
2022-08-17T20:37:58.791Z,0
2022-08-17T20:38:58.777Z,58.12
2022-08-17T20:39:58.787Z,56.98
2022-08-17T20:40:58.752Z,56.26
2022-08-17T20:41:58.744Z,0
2022-08-17T20:42:58.738Z,0
2022-08-17T20:43:58.718Z,0
2022-08-17T20:44:58.718Z,0
2022-08-17T20:45:58.704Z,0
2022-08-17T20:46:58.691Z,58.84
2022-08-17T20:48:58.663Z,58.42
2022-08-17T20:49:59.416Z,58.12
2022-08-17T20:50:58.643Z,58.02
2022-08-17T20:51:58.631Z,0
2022-08-17T20:52:58.621Z,58.32
2022-08-17T20:53:58.615Z,0
2022-08-17T20:54:58.607Z,58.12
2022-08-17T20:55:58.605Z,0
2022-08-17T20:56:58.584Z,0
2022-08-17T20:57:58.618Z,0
2022-08-17T20:58:58.562Z,0
2022-08-17T20:59:58.560Z,0
2022-08-17T21:00:58.544Z,0
2022-08-17T21:01:58.537Z,0
2022-08-17T21:02:58.519Z,0
2022-08-17T21:03:58.514Z,0
2022-08-17T21:04:58.543Z,0
2022-08-17T21:05:58.485Z,0
2022-08-17T21:06:58.472Z,0
2022-08-17T21:07:58.491Z,0
2022-08-17T21:08:58.456Z,0
2022-08-17T21:09:58.446Z,0
2022-08-17T21:10:58.464Z,0
2022-08-17T21:11:58.429Z,0
2022-08-17T21:12:58.416Z,60.38
2022-08-17T21:13:58.397Z,0
2022-08-17T21:14:58.394Z,0
2022-08-17T21:15:58.378Z,0
2022-08-17T21:16:58.367Z,0
2022-08-17T21:17:58.358Z,0
2022-08-17T21:18:58.354Z,0
2022-08-17T21:19:58.331Z,0
2022-08-17T21:20:58.328Z,0
2022-08-17T21:21:58.316Z,0
2022-08-17T21:22:58.315Z,0
2022-08-17T21:23:58.297Z,0
2022-08-17T21:24:58.291Z,0
2022-08-17T21:25:58.276Z,0
2022-08-17T21:26:58.283Z,0
2022-08-17T21:27:58.253Z,0
2022-08-17T21:28:58.245Z,0
2022-08-17T21:29:58.233Z,0
2022-08-17T21:30:58.234Z,61.34
2022-08-17T21:31:58.214Z,60.32
2022-08-17T21:32:58.250Z,60.1
2022-08-17T21:33:58.193Z,60.82
2022-08-17T21:34:58.180Z,61.21
2022-08-17T21:35:58.169Z,60.72
2022-08-17T21:36:58.167Z,60.49
2022-08-17T21:37:58.144Z,60.1
2022-08-17T21:38:58.130Z,60
2022-08-17T21:39:58.127Z,59.87
2022-08-17T21:40:58.115Z,59.77
2022-08-17T21:41:58.111Z,59.77
2022-08-17T21:42:58.091Z,59.67
2022-08-17T21:43:58.078Z,59.77
2022-08-17T21:44:58.075Z,59.77
2022-08-17T21:45:58.067Z,59.77
2022-08-17T21:46:58.055Z,59.87
2022-08-17T21:47:58.048Z,59.87
2022-08-17T21:48:58.032Z,59.87
2022-08-17T21:49:58.023Z,59.77
2022-08-17T21:50:58.004Z,59.87
2022-08-17T21:51:57.994Z,60.07
2022-08-17T21:52:57.985Z,60.49
2022-08-17T21:53:57.990Z,60.39
2022-08-17T21:54:57.961Z,60.49
2022-08-17T21:55:57.953Z,60.49
2022-08-17T21:56:57.950Z,60.69
2022-08-17T21:57:57.936Z,61.21
2022-08-17T21:58:57.927Z,62.16
2022-08-17T21:59:57.918Z,62.99
2022-08-17T22:00:57.903Z,63.58
2022-08-17T22:01:57.894Z,64.01
2022-08-17T22:02:57.879Z,63.98
2022-08-17T22:03:57.877Z,64.07
2022-08-17T22:04:57.865Z,63.88
2022-08-17T22:05:57.842Z,63.98
2022-08-17T22:06:57.835Z,64.31
2022-08-17T22:07:57.832Z,64.07
2022-08-17T22:08:57.818Z,63.68
2022-08-17T22:09:57.806Z,63.45
2022-08-17T22:10:57.800Z,63.25
2022-08-17T22:11:57.806Z,62.96
2022-08-17T22:12:57.769Z,62.85
2022-08-17T22:13:57.793Z,62.63
2022-08-17T22:14:57.758Z,62.53
2022-08-17T22:15:57.764Z,62.43
2022-08-17T22:16:57.765Z,62.43
2022-08-17T22:17:57.717Z,62.43
2022-08-17T22:18:57.706Z,62.33
2022-08-17T22:19:57.695Z,62.33
2022-08-17T22:20:57.684Z,62.01
2022-08-17T22:21:57.676Z,62.13
2022-08-17T22:22:57.691Z,62.04
2022-08-17T22:23:57.655Z,62.33
2022-08-17T22:24:57.641Z,62.2
2022-08-17T22:25:57.633Z,62.01
2022-08-17T22:26:57.621Z,61.8
2022-08-17T22:27:57.611Z,61.71
2022-08-17T22:28:57.608Z,61.51
2022-08-17T22:29:57.599Z,61.71
2022-08-17T22:30:57.582Z,61.91
2022-08-17T22:31:57.571Z,61.71
2022-08-17T22:32:57.562Z,61.8
2022-08-17T22:33:57.555Z,61.91
2022-08-17T22:34:57.556Z,61.91
2022-08-17T22:35:57.529Z,61.71
2022-08-17T22:36:57.529Z,62.01
2022-08-17T22:37:57.503Z,61.8
2022-08-17T22:38:57.503Z,61.71
2022-08-17T22:39:57.523Z,61.8
2022-08-17T22:40:57.476Z,61.71
2022-08-17T22:41:57.486Z,61.83
2022-08-17T22:42:57.453Z,61.94
2022-08-17T22:43:57.478Z,62.04
2022-08-17T22:44:57.443Z,61.74
2022-08-17T22:45:57.434Z,62.04
2022-08-17T22:46:57.411Z,62.13
2022-08-17T22:47:57.398Z,62.23
2022-08-17T22:48:57.390Z,63.06
2022-08-17T22:49:57.391Z,62.73
2022-08-17T22:50:57.395Z,63.15
2022-08-17T22:51:57.370Z,63.02
2022-08-17T22:52:57.348Z,63.12
2022-08-17T22:53:57.332Z,61.88
2022-08-17T22:54:57.324Z,60.36
2022-08-17T22:55:57.334Z,60.43
2022-08-17T22:56:57.354Z,60.14
2022-08-17T22:57:57.293Z,61.08
2022-08-17T22:58:57.284Z,61.38
2022-08-17T22:59:57.278Z,60.83
2022-08-17T23:00:57.260Z,59.48
2022-08-17T23:01:57.246Z,58.8
2022-08-17T23:02:57.249Z,60.27
2022-08-17T23:03:57.248Z,61.18
2022-08-17T23:04:57.217Z,61.71
2022-08-17T23:05:57.206Z,62.23
2022-08-17T23:06:57.204Z,62.43
2022-08-17T23:07:57.186Z,62.85
2022-08-17T23:08:57.192Z,63.35
2022-08-17T23:09:57.164Z,63.15
2022-08-17T23:10:57.161Z,63.06
2022-08-17T23:11:57.151Z,63.06
2022-08-17T23:12:57.132Z,63.06
2022-08-17T23:13:57.122Z,63.15
2022-08-17T23:14:57.108Z,63.25
2022-08-17T23:15:57.097Z,63.35
2022-08-17T23:16:57.090Z,63.22
2022-08-17T23:17:57.091Z,63.12
2022-08-17T23:18:57.087Z,63.25
2022-08-17T23:19:57.066Z,63.45
2022-08-17T23:20:57.057Z,61.94
2022-08-17T23:21:57.052Z,62.6
2022-08-17T23:22:57.036Z,63.09
2022-08-17T23:23:57.032Z,63.52
2022-08-17T23:24:57.056Z,63.62
2022-08-17T23:25:56.999Z,63.82
2022-08-17T23:26:56.978Z,63.95
2022-08-17T23:27:56.973Z,64.14
2022-08-17T23:28:56.973Z,64.24
2022-08-17T23:29:56.956Z,64.74
2022-08-17T23:30:56.936Z,65.06
2022-08-17T23:31:56.941Z,64.74
2022-08-17T23:32:56.921Z,65.06
2022-08-17T23:33:56.910Z,65.69
2022-08-17T23:34:56.900Z,66.19
2022-08-17T23:35:56.889Z,66.61
2022-08-17T23:36:56.875Z,66.09
2022-08-17T23:37:56.881Z,65.46
2022-08-17T23:38:56.853Z,65.26
2022-08-17T23:39:56.851Z,65.69
2022-08-17T23:40:56.848Z,65.56
2022-08-17T23:41:56.823Z,65.26
2022-08-17T23:42:56.815Z,65.99
2022-08-17T23:43:56.796Z,65.79
2022-08-17T23:44:56.844Z,65.56
2022-08-17T23:45:56.787Z,65.26
2022-08-17T23:46:56.783Z,65.17
2022-08-17T23:47:56.763Z,65.26
2022-08-17T23:48:56.745Z,65.89
2022-08-17T23:49:56.733Z,66.19
2022-08-17T23:50:56.725Z,66.09
2022-08-17T23:51:56.710Z,66.22
2022-08-17T23:52:56.721Z,66.61
2022-08-17T23:53:56.702Z,67.64
2022-08-17T23:54:56.698Z,68.13
2022-08-17T23:55:56.672Z,67.31
2022-08-17T23:56:56.662Z,65.63
2022-08-17T23:57:56.699Z,65.43
2022-08-17T23:58:56.655Z,66.09
2022-08-17T23:59:56.632Z,66.49
